Yuma, AZ

9:01 AM MST on September 20, 2014 (GMT -0700)
Yuma Marine Corps Air Station | Change Station
CLOSE
Current Station
Airport
Location: Yuma MCAS,
Elevation: 213 ft
Nearby Weather Stations

Elev 213 ft 32.66 °N, 114.61 °W | Updated 4 minutes ago

Mostly Cloudy
Mostly Cloudy
86 °F
Feels Like 92 °F
N
7
Wind Variable Wind from South

Today
High -- | Low -- °F
--% Chance of Precip.
Yesterday
High -- | Low -- °F
Precip. -- in
6:25 AM 6:37 PM
Waning Crescent, 11% visible
Pressure 29.82 in
Visibility 10.0 miles
Clouds Mostly Cloudy 10000 ft
Heat Index 92 °F
Dew Point 72 °F
Humidity 63%
Rainfall 0.00 in
Snow Depth 0 in , 1 in , 0 in
UV 2 out of 12
Pollen 8.60 out of 12
Air Quality Not available.
Flu Activity Not available.
METAR KNYL 201557Z 19006KT 10SM BKN100 30/22 A2983 RMK AO2 SLP098 T03000222 $

More Conditions Fewer Conditions

Pressure 29.82 in
Visibility 10.0 miles
Clouds Mostly Cloudy 10000 ft
Heat Index 92 °F
Dew Point 72 °F
Humidity 63%
Rainfall 0.00 in
Snow Depth 0 in , 1 in , 0 in
UV 2 out of 12
Pollen 8.60 out of 12
Air Quality Not available.
Flu Activity Not available.
METAR KNYL 201557Z 19006KT 10SM BKN100 30/22 A2983 RMK AO2 SLP098 T03000222 $

More Conditions Fewer Conditions

10-Day Weather Forecast

Almanac

Astronomy

Sep. 20, 2014 Rise Set
Actual Time 6:25 AM MST 6:37 PM MST
Civil Twilight 6:00 AM MST 7:02 PM MST
Nautical Twilight 5:32 AM MST 7:30 PM MST
Astronomical Twilight 5:02 AM MST 7:59 PM MST
Moon 3:16 AM MST 4:36 PM MST
Length of Visible Light 13h 01m
Length of Day
12h 12m
Tomorrow will be 2m 0s shorter.
Waning Crescent, 11% of the Moon is Illuminated
Today
Waning Crescent
Sep 24
New
Oct 1
First Quarter
Oct 8
Full
Oct 15
Last Quarter

Today's Extremes

State Highs State Lows

Community

WunderPhotos

Upload Photos

1,754,888 photos uploaded!

Nearby

Snow Depth

Station Depth Elevation
Fry 0 in 7200 ft
Promontory 0 in 7930 ft
Workman Creek 1 in 6900 ft
White Horse Lake 0 in 7180 ft
Snowslide Canyon 0 in 9730 ft

Earthquake Activity

City Distance Mag. Time & Date
San Felipe, Mexico 131 miles 4.2 3:13 PM MST
2014-09-17
Minimum magnitude displayed is 2.5.

Coastal Water Temperatures

Place Temperature
No Stations Reporting

Nearby Weather Stations